sensor_id;sensor_type;location;lat;lon;timestamp;P1;durP1;ratioP1;P2;durP2;ratioP2
76597;SDS011;65486;53.144;18.134;2023-04-15T00:01:29;15.00;;;9.30;;
76597;SDS011;65486;53.144;18.134;2023-04-15T00:03:59;15.60;;;9.00;;
76597;SDS011;65486;53.144;18.134;2023-04-15T00:06:26;13.10;;;8.50;;
76597;SDS011;65486;53.144;18.134;2023-04-15T00:08:54;13.50;;;9.10;;
76597;SDS011;65486;53.144;18.134;2023-04-15T00:11:21;15.00;;;9.30;;
76597;SDS011;65486;53.144;18.134;2023-04-15T00:13:49;14.50;;;9.20;;
76597;SDS011;65486;53.144;18.134;2023-04-15T00:16:17;15.40;;;8.80;;
76597;SDS011;65486;53.144;18.134;2023-04-15T00:18:44;13.10;;;8.30;;
76597;SDS011;65486;53.144;18.134;2023-04-15T00:21:15;12.70;;;8.70;;
76597;SDS011;65486;53.144;18.134;2023-04-15T00:23:44;12.80;;;8.50;;
76597;SDS011;65486;53.144;18.134;2023-04-15T00:26:16;12.50;;;8.30;;
76597;SDS011;65486;53.144;18.134;2023-04-15T00:28:48;8.90;;;4.90;;
76597;SDS011;65486;53.144;18.134;2023-04-15T00:31:15;12.40;;;7.20;;
76597;SDS011;65486;53.144;18.134;2023-04-15T00:33:42;13.50;;;8.60;;
76597;SDS011;65486;53.144;18.134;2023-04-15T00:36:10;13.60;;;8.90;;
76597;SDS011;65486;53.144;18.134;2023-04-15T00:38:37;14.60;;;9.70;;
76597;SDS011;65486;53.144;18.134;2023-04-15T00:41:05;15.20;;;9.30;;
76597;SDS011;65486;53.144;18.134;2023-04-15T00:43:33;15.00;;;9.30;;
76597;SDS011;65486;53.144;18.134;2023-04-15T00:46:03;13.10;;;7.90;;
76597;SDS011;65486;53.144;18.134;2023-04-15T00:48:32;14.30;;;9.80;;
76597;SDS011;65486;53.144;18.134;2023-04-15T00:50:59;16.30;;;10.50;;
76597;SDS011;65486;53.144;18.134;2023-04-15T00:53:27;13.60;;;8.90;;
76597;SDS011;65486;53.144;18.134;2023-04-15T00:55:54;14.40;;;8.70;;
76597;SDS011;65486;53.144;18.134;2023-04-15T00:58:21;13.40;;;9.40;;
76597;SDS011;65486;53.144;18.134;2023-04-15T01:00:49;10.80;;;7.10;;
76597;SDS011;65486;53.144;18.134;2023-04-15T01:03:19;13.70;;;8.80;;
76597;SDS011;65486;53.144;18.134;2023-04-15T01:05:46;14.10;;;9.70;;
76597;SDS011;65486;53.144;18.134;2023-04-15T01:08:15;14.80;;;8.80;;
76597;SDS011;65486;53.144;18.134;2023-04-15T01:10:42;14.00;;;8.10;;
76597;SDS011;65486;53.144;18.134;2023-04-15T01:13:09;14.50;;;9.40;;
76597;SDS011;65486;53.144;18.134;2023-04-15T01:15:38;13.40;;;8.50;;
76597;SDS011;65486;53.144;18.134;2023-04-15T01:18:06;14.30;;;9.50;;
76597;SDS011;65486;53.144;18.134;2023-04-15T01:20:38;15.20;;;9.40;;
76597;SDS011;65486;53.144;18.134;2023-04-15T01:26:06;13.80;;;8.30;;
76597;SDS011;65486;53.144;18.134;2023-04-15T01:28:36;13.10;;;8.50;;
76597;SDS011;65486;53.144;18.134;2023-04-15T01:31:08;13.00;;;8.40;;
76597;SDS011;65486;53.144;18.134;2023-04-15T01:33:37;14.50;;;9.20;;
76597;SDS011;65486;53.144;18.134;2023-04-15T01:36:07;16.40;;;10.20;;
76597;SDS011;65486;53.144;18.134;2023-04-15T01:38:39;15.30;;;9.60;;
76597;SDS011;65486;53.144;18.134;2023-04-15T01:41:07;13.90;;;9.00;;
76597;SDS011;65486;53.144;18.134;2023-04-15T01:43:35;15.20;;;8.90;;
76597;SDS011;65486;53.144;18.134;2023-04-15T01:46:05;11.50;;;7.50;;
76597;SDS011;65486;53.144;18.134;2023-04-15T01:48:32;16.00;;;9.10;;
76597;SDS011;65486;53.144;18.134;2023-04-15T01:51:01;11.00;;;7.20;;
76597;SDS011;65486;53.144;18.134;2023-04-15T01:53:28;14.60;;;9.50;;
76597;SDS011;65486;53.144;18.134;2023-04-15T01:55:55;13.60;;;8.90;;
76597;SDS011;65486;53.144;18.134;2023-04-15T01:58:22;12.70;;;8.40;;
76597;SDS011;65486;53.144;18.134;2023-04-15T02:00:50;16.10;;;10.00;;
76597;SDS011;65486;53.144;18.134;2023-04-15T02:03:17;12.70;;;8.20;;
76597;SDS011;65486;53.144;18.134;2023-04-15T02:05:46;13.90;;;8.20;;
76597;SDS011;65486;53.144;18.134;2023-04-15T02:08:13;12.90;;;9.00;;
76597;SDS011;65486;53.144;18.134;2023-04-15T02:10:41;13.10;;;8.10;;
76597;SDS011;65486;53.144;18.134;2023-04-15T02:13:09;18.10;;;11.20;;
76597;SDS011;65486;53.144;18.134;2023-04-15T02:15:37;16.30;;;9.00;;
76597;SDS011;65486;53.144;18.134;2023-04-15T02:18:07;10.40;;;7.20;;
76597;SDS011;65486;53.144;18.134;2023-04-15T02:20:36;12.50;;;7.70;;
76597;SDS011;65486;53.144;18.134;2023-04-15T02:23:03;12.00;;;7.70;;
76597;SDS011;65486;53.144;18.134;2023-04-15T02:25:32;11.00;;;7.00;;
76597;SDS011;65486;53.144;18.134;2023-04-15T02:27:59;12.50;;;7.90;;
76597;SDS011;65486;53.144;18.134;2023-04-15T02:30:27;11.20;;;7.30;;
76597;SDS011;65486;53.144;18.134;2023-04-15T02:32:54;12.70;;;8.70;;
76597;SDS011;65486;53.144;18.134;2023-04-15T02:35:24;10.50;;;6.40;;
76597;SDS011;65486;53.144;18.134;2023-04-15T02:37:54;13.50;;;8.90;;
76597;SDS011;65486;53.144;18.134;2023-04-15T02:40:21;14.20;;;8.30;;
76597;SDS011;65486;53.144;18.134;2023-04-15T02:42:48;13.60;;;8.80;;
76597;SDS011;65486;53.144;18.134;2023-04-15T02:45:16;12.30;;;7.70;;
76597;SDS011;65486;53.144;18.134;2023-04-15T02:47:45;13.90;;;9.00;;
76597;SDS011;65486;53.144;18.134;2023-04-15T02:50:13;14.20;;;8.50;;
76597;SDS011;65486;53.144;18.134;2023-04-15T02:52:41;12.80;;;8.50;;
76597;SDS011;65486;53.144;18.134;2023-04-15T02:55:09;12.00;;;7.90;;
76597;SDS011;65486;53.144;18.134;2023-04-15T02:57:37;11.10;;;7.10;;
76597;SDS011;65486;53.144;18.134;2023-04-15T03:00:07;14.40;;;8.60;;
76597;SDS011;65486;53.144;18.134;2023-04-15T03:02:38;12.80;;;8.50;;
76597;SDS011;65486;53.144;18.134;2023-04-15T03:05:11;11.20;;;7.40;;
76597;SDS011;65486;53.144;18.134;2023-04-15T03:07:42;13.50;;;8.30;;
76597;SDS011;65486;53.144;18.134;2023-04-15T03:10:12;11.60;;;7.00;;
76597;SDS011;65486;53.144;18.134;2023-04-15T03:12:39;12.60;;;8.00;;
76597;SDS011;65486;53.144;18.134;2023-04-15T03:15:08;13.20;;;8.30;;
76597;SDS011;65486;53.144;18.134;2023-04-15T03:17:38;11.20;;;6.90;;
76597;SDS011;65486;53.144;18.134;2023-04-15T03:20:05;12.20;;;8.60;;
76597;SDS011;65486;53.144;18.134;2023-04-15T03:22:34;14.30;;;8.70;;
76597;SDS011;65486;53.144;18.134;2023-04-15T03:25:01;12.60;;;8.30;;
76597;SDS011;65486;53.144;18.134;2023-04-15T03:27:28;11.10;;;7.30;;
76597;SDS011;65486;53.144;18.134;2023-04-15T03:29:58;14.10;;;9.60;;
76597;SDS011;65486;53.144;18.134;2023-04-15T03:32:25;12.90;;;8.60;;
76597;SDS011;65486;53.144;18.134;2023-04-15T03:34:53;10.80;;;7.20;;
76597;SDS011;65486;53.144;18.134;2023-04-15T03:37:21;12.00;;;7.60;;
76597;SDS011;65486;53.144;18.134;2023-04-15T03:39:48;12.80;;;8.70;;
76597;SDS011;65486;53.144;18.134;2023-04-15T03:42:15;12.60;;;8.10;;
76597;SDS011;65486;53.144;18.134;2023-04-15T03:44:42;13.50;;;7.90;;
76597;SDS011;65486;53.144;18.134;2023-04-15T03:47:10;12.20;;;8.00;;
76597;SDS011;65486;53.144;18.134;2023-04-15T03:49:43;12.60;;;8.60;;
76597;SDS011;65486;53.144;18.134;2023-04-15T03:52:10;12.00;;;7.80;;
76597;SDS011;65486;53.144;18.134;2023-04-15T03:54:38;13.50;;;8.90;;
76597;SDS011;65486;53.144;18.134;2023-04-15T03:57:05;10.60;;;7.30;;
76597;SDS011;65486;53.144;18.134;2023-04-15T03:59:33;12.30;;;8.10;;
76597;SDS011;65486;53.144;18.134;2023-04-15T04:02:04;12.40;;;7.40;;
76597;SDS011;65486;53.144;18.134;2023-04-15T04:04:31;12.10;;;8.90;;
76597;SDS011;65486;53.144;18.134;2023-04-15T04:06:58;12.50;;;8.00;;
76597;SDS011;65486;53.144;18.134;2023-04-15T04:09:30;13.90;;;9.40;;
76597;SDS011;65486;53.144;18.134;2023-04-15T04:11:57;12.00;;;8.60;;
76597;SDS011;65486;53.144;18.134;2023-04-15T04:14:24;16.40;;;8.90;;
76597;SDS011;65486;53.144;18.134;2023-04-15T04:16:56;14.00;;;8.90;;
76597;SDS011;65486;53.144;18.134;2023-04-15T04:19:24;16.30;;;10.30;;
76597;SDS011;65486;53.144;18.134;2023-04-15T04:21:53;13.30;;;8.90;;
76597;SDS011;65486;53.144;18.134;2023-04-15T04:24:21;12.50;;;8.40;;
76597;SDS011;65486;53.144;18.134;2023-04-15T04:26:51;13.50;;;8.20;;
76597;SDS011;65486;53.144;18.134;2023-04-15T04:29:19;12.40;;;7.90;;
76597;SDS011;65486;53.144;18.134;2023-04-15T04:31:52;17.50;;;10.60;;
76597;SDS011;65486;53.144;18.134;2023-04-15T04:34:20;22.40;;;11.80;;
76597;SDS011;65486;53.144;18.134;2023-04-15T04:36:46;14.30;;;8.70;;
76597;SDS011;65486;53.144;18.134;2023-04-15T04:39:13;13.60;;;8.00;;
76597;SDS011;65486;53.144;18.134;2023-04-15T04:41:40;13.00;;;8.40;;
76597;SDS011;65486;53.144;18.134;2023-04-15T04:44:07;25.80;;;14.00;;
76597;SDS011;65486;53.144;18.134;2023-04-15T04:46:34;20.00;;;11.60;;
76597;SDS011;65486;53.144;18.134;2023-04-15T04:49:03;22.00;;;14.80;;
76597;SDS011;65486;53.144;18.134;2023-04-15T04:51:30;16.90;;;12.00;;
76597;SDS011;65486;53.144;18.134;2023-04-15T04:53:58;23.30;;;16.90;;
76597;SDS011;65486;53.144;18.134;2023-04-15T04:56:26;25.10;;;18.60;;
76597;SDS011;65486;53.144;18.134;2023-04-15T04:58:53;19.90;;;12.80;;
76597;SDS011;65486;53.144;18.134;2023-04-15T05:01:21;18.70;;;11.50;;
76597;SDS011;65486;53.144;18.134;2023-04-15T05:03:48;16.10;;;10.80;;
76597;SDS011;65486;53.144;18.134;2023-04-15T05:06:15;13.60;;;9.30;;
76597;SDS011;65486;53.144;18.134;2023-04-15T05:08:42;12.50;;;8.00;;
76597;SDS011;65486;53.144;18.134;2023-04-15T05:11:09;11.20;;;7.70;;
76597;SDS011;65486;53.144;18.134;2023-04-15T05:13:37;13.00;;;8.40;;
76597;SDS011;65486;53.144;18.134;2023-04-15T05:16:04;13.50;;;9.00;;
76597;SDS011;65486;53.144;18.134;2023-04-15T05:18:32;13.60;;;9.20;;
76597;SDS011;65486;53.144;18.134;2023-04-15T05:20:59;14.50;;;8.90;;
76597;SDS011;65486;53.144;18.134;2023-04-15T05:23:32;13.30;;;8.60;;
76597;SDS011;65486;53.144;18.134;2023-04-15T05:26:02;14.00;;;8.10;;
76597;SDS011;65486;53.144;18.134;2023-04-15T05:28:30;13.60;;;8.40;;
76597;SDS011;65486;53.144;18.134;2023-04-15T05:30:57;14.10;;;9.80;;
76597;SDS011;65486;53.144;18.134;2023-04-15T05:33:24;14.70;;;9.90;;
76597;SDS011;65486;53.144;18.134;2023-04-15T05:35:53;17.90;;;10.50;;
76597;SDS011;65486;53.144;18.134;2023-04-15T05:38:21;13.50;;;9.10;;
76597;SDS011;65486;53.144;18.134;2023-04-15T05:40:49;11.70;;;8.40;;
76597;SDS011;65486;53.144;18.134;2023-04-15T05:43:17;13.30;;;9.40;;
76597;SDS011;65486;53.144;18.134;2023-04-15T05:45:44;12.20;;;8.30;;
76597;SDS011;65486;53.144;18.134;2023-04-15T05:48:14;13.50;;;9.00;;
76597;SDS011;65486;53.144;18.134;2023-04-15T05:50:41;14.30;;;8.30;;
76597;SDS011;65486;53.144;18.134;2023-04-15T05:53:08;11.70;;;7.60;;
76597;SDS011;65486;53.144;18.134;2023-04-15T05:55:36;11.20;;;7.40;;
76597;SDS011;65486;53.144;18.134;2023-04-15T05:58:04;10.40;;;6.90;;
76597;SDS011;65486;53.144;18.134;2023-04-15T06:00:32;11.50;;;7.60;;
76597;SDS011;65486;53.144;18.134;2023-04-15T06:02:59;14.30;;;9.90;;
76597;SDS011;65486;53.144;18.134;2023-04-15T06:05:26;16.00;;;10.10;;
76597;SDS011;65486;53.144;18.134;2023-04-15T06:07:53;14.00;;;7.80;;
76597;SDS011;65486;53.144;18.134;2023-04-15T06:10:20;18.40;;;10.90;;
76597;SDS011;65486;53.144;18.134;2023-04-15T06:12:47;14.20;;;9.70;;
76597;SDS011;65486;53.144;18.134;2023-04-15T06:15:14;14.40;;;8.80;;
76597;SDS011;65486;53.144;18.134;2023-04-15T06:17:42;14.70;;;9.20;;
76597;SDS011;65486;53.144;18.134;2023-04-15T06:20:09;14.50;;;9.80;;
76597;SDS011;65486;53.144;18.134;2023-04-15T06:22:37;14.80;;;10.00;;
76597;SDS011;65486;53.144;18.134;2023-04-15T06:25:05;15.40;;;10.00;;
76597;SDS011;65486;53.144;18.134;2023-04-15T06:27:33;18.00;;;10.80;;
76597;SDS011;65486;53.144;18.134;2023-04-15T06:30:00;17.40;;;11.70;;
76597;SDS011;65486;53.144;18.134;2023-04-15T06:32:27;15.60;;;10.70;;
76597;SDS011;65486;53.144;18.134;2023-04-15T06:34:54;16.80;;;11.30;;
76597;SDS011;65486;53.144;18.134;2023-04-15T06:37:21;20.00;;;12.00;;
76597;SDS011;65486;53.144;18.134;2023-04-15T06:39:48;16.00;;;10.60;;
76597;SDS011;65486;53.144;18.134;2023-04-15T06:42:15;15.70;;;10.30;;
76597;SDS011;65486;53.144;18.134;2023-04-15T06:44:42;17.30;;;11.30;;
76597;SDS011;65486;53.144;18.134;2023-04-15T06:47:09;22.70;;;14.60;;
76597;SDS011;65486;53.144;18.134;2023-04-15T06:49:35;20.40;;;13.20;;
76597;SDS011;65486;53.144;18.134;2023-04-15T06:52:02;14.20;;;8.30;;
76597;SDS011;65486;53.144;18.134;2023-04-15T06:54:30;19.50;;;12.90;;
76597;SDS011;65486;53.144;18.134;2023-04-15T06:56:57;18.70;;;10.80;;
76597;SDS011;65486;53.144;18.134;2023-04-15T06:59:24;14.50;;;8.50;;
76597;SDS011;65486;53.144;18.134;2023-04-15T07:01:52;15.20;;;9.00;;
76597;SDS011;65486;53.144;18.134;2023-04-15T07:04:20;18.10;;;12.70;;
76597;SDS011;65486;53.144;18.134;2023-04-15T07:06:47;19.30;;;10.90;;
76597;SDS011;65486;53.144;18.134;2023-04-15T07:09:14;12.30;;;8.20;;
76597;SDS011;65486;53.144;18.134;2023-04-15T07:11:40;13.20;;;8.90;;
76597;SDS011;65486;53.144;18.134;2023-04-15T07:14:07;15.30;;;10.90;;
76597;SDS011;65486;53.144;18.134;2023-04-15T07:16:34;15.00;;;9.90;;
76597;SDS011;65486;53.144;18.134;2023-04-15T07:19:01;17.40;;;11.40;;
76597;SDS011;65486;53.144;18.134;2023-04-15T07:21:28;17.80;;;11.90;;
76597;SDS011;65486;53.144;18.134;2023-04-15T07:23:55;14.80;;;9.40;;
76597;SDS011;65486;53.144;18.134;2023-04-15T07:26:22;14.00;;;8.30;;
76597;SDS011;65486;53.144;18.134;2023-04-15T07:28:49;17.50;;;10.40;;
76597;SDS011;65486;53.144;18.134;2023-04-15T07:31:19;13.70;;;9.50;;
76597;SDS011;65486;53.144;18.134;2023-04-15T07:33:46;15.00;;;9.50;;
76597;SDS011;65486;53.144;18.134;2023-04-15T07:36:13;18.00;;;11.60;;
76597;SDS011;65486;53.144;18.134;2023-04-15T07:38:41;13.40;;;7.70;;
76597;SDS011;65486;53.144;18.134;2023-04-15T07:41:08;15.20;;;10.40;;
76597;SDS011;65486;53.144;18.134;2023-04-15T07:43:36;14.90;;;9.90;;
76597;SDS011;65486;53.144;18.134;2023-04-15T07:46:04;16.50;;;11.50;;
76597;SDS011;65486;53.144;18.134;2023-04-15T07:48:37;16.40;;;10.10;;
76597;SDS011;65486;53.144;18.134;2023-04-15T07:51:06;20.40;;;11.30;;
76597;SDS011;65486;53.144;18.134;2023-04-15T07:53:36;15.10;;;8.90;;
76597;SDS011;65486;53.144;18.134;2023-04-15T07:56:08;17.70;;;9.90;;
76597;SDS011;65486;53.144;18.134;2023-04-15T07:58:35;20.60;;;12.30;;
76597;SDS011;65486;53.144;18.134;2023-04-15T08:01:03;16.30;;;11.00;;
76597;SDS011;65486;53.144;18.134;2023-04-15T08:03:44;18.50;;;11.90;;
76597;SDS011;65486;53.144;18.134;2023-04-15T08:06:15;14.90;;;8.70;;
76597;SDS011;65486;53.144;18.134;2023-04-15T08:08:44;14.80;;;10.00;;
76597;SDS011;65486;53.144;18.134;2023-04-15T08:11:11;17.60;;;11.20;;
76597;SDS011;65486;53.144;18.134;2023-04-15T08:13:55;16.80;;;10.00;;
76597;SDS011;65486;53.144;18.134;2023-04-15T08:16:26;17.50;;;11.10;;
76597;SDS011;65486;53.144;18.134;2023-04-15T08:19:10;15.90;;;9.90;;
76597;SDS011;65486;53.144;18.134;2023-04-15T08:21:41;16.30;;;10.00;;
76597;SDS011;65486;53.144;18.134;2023-04-15T08:24:09;16.30;;;9.70;;
76597;SDS011;65486;53.144;18.134;2023-04-15T08:26:39;19.00;;;11.40;;
76597;SDS011;65486;53.144;18.134;2023-04-15T08:29:13;15.20;;;9.70;;
76597;SDS011;65486;53.144;18.134;2023-04-15T08:32:12;19.90;;;11.30;;
76597;SDS011;65486;53.144;18.134;2023-04-15T08:34:40;17.30;;;10.70;;
76597;SDS011;65486;53.144;18.134;2023-04-15T08:37:12;14.80;;;9.70;;
76597;SDS011;65486;53.144;18.134;2023-04-15T08:40:20;16.50;;;10.00;;
76597;SDS011;65486;53.144;18.134;2023-04-15T08:49:17;13.90;;;8.50;;
76597;SDS011;65486;53.144;18.134;2023-04-15T08:51:47;14.80;;;9.50;;
76597;SDS011;65486;53.144;18.134;2023-04-15T08:54:15;14.30;;;9.20;;
76597;SDS011;65486;53.144;18.134;2023-04-15T08:56:52;17.20;;;11.40;;
76597;SDS011;65486;53.144;18.134;2023-04-15T08:59:44;15.90;;;9.50;;
76597;SDS011;65486;53.144;18.134;2023-04-15T09:02:13;18.20;;;11.50;;
76597;SDS011;65486;53.144;18.134;2023-04-15T09:04:43;17.10;;;11.30;;
76597;SDS011;65486;53.144;18.134;2023-04-15T09:07:26;12.70;;;8.90;;
76597;SDS011;65486;53.144;18.134;2023-04-15T09:09:53;16.00;;;10.50;;
76597;SDS011;65486;53.144;18.134;2023-04-15T09:12:21;15.80;;;10.80;;
76597;SDS011;65486;53.144;18.134;2023-04-15T09:14:49;20.10;;;11.60;;
76597;SDS011;65486;53.144;18.134;2023-04-15T09:17:17;18.80;;;12.40;;
76597;SDS011;65486;53.144;18.134;2023-04-15T09:20:06;16.00;;;10.70;;
76597;SDS011;65486;53.144;18.134;2023-04-15T09:22:34;17.90;;;10.90;;
76597;SDS011;65486;53.144;18.134;2023-04-15T09:25:16;18.80;;;10.70;;
76597;SDS011;65486;53.144;18.134;2023-04-15T09:28:00;14.40;;;9.40;;
76597;SDS011;65486;53.144;18.134;2023-04-15T09:30:29;18.00;;;11.10;;
76597;SDS011;65486;53.144;18.134;2023-04-15T09:32:58;15.90;;;10.60;;
76597;SDS011;65486;53.144;18.134;2023-04-15T09:35:27;13.30;;;9.00;;
76597;SDS011;65486;53.144;18.134;2023-04-15T09:38:02;16.00;;;10.00;;
76597;SDS011;65486;53.144;18.134;2023-04-15T09:40:41;12.50;;;7.70;;
76597;SDS011;65486;53.144;18.134;2023-04-15T09:43:09;13.70;;;8.70;;
76597;SDS011;65486;53.144;18.134;2023-04-15T09:45:38;14.30;;;9.10;;
76597;SDS011;65486;53.144;18.134;2023-04-15T09:50:42;21.40;;;11.20;;
76597;SDS011;65486;53.144;18.134;2023-04-15T09:53:14;17.70;;;10.50;;
76597;SDS011;65486;53.144;18.134;2023-04-15T09:55:44;14.40;;;8.40;;
76597;SDS011;65486;53.144;18.134;2023-04-15T09:58:18;16.40;;;9.40;;
76597;SDS011;65486;53.144;18.134;2023-04-15T10:00:54;17.50;;;9.90;;
76597;SDS011;65486;53.144;18.134;2023-04-15T10:03:24;14.30;;;9.40;;
76597;SDS011;65486;53.144;18.134;2023-04-15T10:05:55;17.00;;;11.10;;
76597;SDS011;65486;53.144;18.134;2023-04-15T10:08:29;14.20;;;9.50;;
76597;SDS011;65486;53.144;18.134;2023-04-15T10:11:03;13.80;;;9.10;;
76597;SDS011;65486;53.144;18.134;2023-04-15T10:13:37;16.00;;;10.60;;
76597;SDS011;65486;53.144;18.134;2023-04-15T10:16:06;13.70;;;8.70;;
76597;SDS011;65486;53.144;18.134;2023-04-15T10:18:37;11.90;;;7.10;;
76597;SDS011;65486;53.144;18.134;2023-04-15T10:21:08;12.30;;;8.60;;
76597;SDS011;65486;53.144;18.134;2023-04-15T10:23:42;14.60;;;10.00;;
76597;SDS011;65486;53.144;18.134;2023-04-15T10:26:10;12.70;;;8.60;;
76597;SDS011;65486;53.144;18.134;2023-04-15T10:28:40;13.50;;;8.20;;
76597;SDS011;65486;53.144;18.134;2023-04-15T10:31:09;15.10;;;10.00;;
76597;SDS011;65486;53.144;18.134;2023-04-15T10:33:47;15.50;;;9.50;;
76597;SDS011;65486;53.144;18.134;2023-04-15T10:36:16;14.70;;;8.80;;
76597;SDS011;65486;53.144;18.134;2023-04-15T10:38:47;14.00;;;8.40;;
76597;SDS011;65486;53.144;18.134;2023-04-15T10:43:54;11.70;;;7.30;;
76597;SDS011;65486;53.144;18.134;2023-04-15T10:49:11;12.20;;;7.10;;
76597;SDS011;65486;53.144;18.134;2023-04-15T10:51:50;14.90;;;9.20;;
76597;SDS011;65486;53.144;18.134;2023-04-15T10:54:49;13.50;;;8.90;;
76597;SDS011;65486;53.144;18.134;2023-04-15T10:57:22;14.10;;;8.40;;
76597;SDS011;65486;53.144;18.134;2023-04-15T11:02:38;12.70;;;8.60;;
76597;SDS011;65486;53.144;18.134;2023-04-15T11:05:18;16.80;;;10.50;;
76597;SDS011;65486;53.144;18.134;2023-04-15T11:07:53;17.20;;;10.30;;
76597;SDS011;65486;53.144;18.134;2023-04-15T11:13:13;15.70;;;9.00;;
76597;SDS011;65486;53.144;18.134;2023-04-15T11:15:47;14.40;;;8.10;;
76597;SDS011;65486;53.144;18.134;2023-04-15T11:18:24;14.30;;;8.80;;
76597;SDS011;65486;53.144;18.134;2023-04-15T11:20:56;15.20;;;9.50;;
76597;SDS011;65486;53.144;18.134;2023-04-15T11:23:31;14.80;;;8.90;;
76597;SDS011;65486;53.144;18.134;2023-04-15T11:26:03;14.70;;;9.20;;
76597;SDS011;65486;53.144;18.134;2023-04-15T11:28:40;19.50;;;10.40;;
76597;SDS011;65486;53.144;18.134;2023-04-15T11:31:14;16.40;;;9.30;;
76597;SDS011;65486;53.144;18.134;2023-04-15T11:33:55;18.20;;;9.20;;
76597;SDS011;65486;53.144;18.134;2023-04-15T11:36:28;14.80;;;8.10;;
76597;SDS011;65486;53.144;18.134;2023-04-15T11:39:03;14.80;;;9.40;;
76597;SDS011;65486;53.144;18.134;2023-04-15T11:41:35;11.60;;;7.10;;
76597;SDS011;65486;53.144;18.134;2023-04-15T11:44:14;11.80;;;7.20;;
76597;SDS011;65486;53.144;18.134;2023-04-15T11:46:42;13.40;;;8.30;;
76597;SDS011;65486;53.144;18.134;2023-04-15T11:52:09;10.20;;;6.50;;
76597;SDS011;65486;53.144;18.134;2023-04-15T11:54:44;15.50;;;8.40;;
76597;SDS011;65486;53.144;18.134;2023-04-15T11:57:21;16.20;;;7.60;;
76597;SDS011;65486;53.144;18.134;2023-04-15T12:00:04;20.20;;;10.10;;
76597;SDS011;65486;53.144;18.134;2023-04-15T12:02:40;18.00;;;9.20;;
76597;SDS011;65486;53.144;18.134;2023-04-15T12:05:10;14.50;;;8.90;;
76597;SDS011;65486;53.144;18.134;2023-04-15T12:07:58;14.40;;;8.20;;
76597;SDS011;65486;53.144;18.134;2023-04-15T12:10:30;16.60;;;10.20;;
76597;SDS011;65486;53.144;18.134;2023-04-15T12:13:05;16.30;;;9.70;;
76597;SDS011;65486;53.144;18.134;2023-04-15T12:15:36;19.00;;;11.00;;
76597;SDS011;65486;53.144;18.134;2023-04-15T12:18:15;18.50;;;11.90;;
76597;SDS011;65486;53.144;18.134;2023-04-15T12:20:46;16.90;;;10.70;;
76597;SDS011;65486;53.144;18.134;2023-04-15T12:23:19;15.00;;;9.80;;
76597;SDS011;65486;53.144;18.134;2023-04-15T12:25:50;16.70;;;11.20;;
76597;SDS011;65486;53.144;18.134;2023-04-15T12:28:24;15.70;;;10.40;;
76597;SDS011;65486;53.144;18.134;2023-04-15T12:31:05;23.90;;;12.90;;
76597;SDS011;65486;53.144;18.134;2023-04-15T12:33:47;21.60;;;11.30;;
76597;SDS011;65486;53.144;18.134;2023-04-15T12:36:16;18.00;;;10.00;;
76597;SDS011;65486;53.144;18.134;2023-04-15T12:38:44;16.00;;;8.80;;
76597;SDS011;65486;53.144;18.134;2023-04-15T12:41:11;17.80;;;10.00;;
76597;SDS011;65486;53.144;18.134;2023-04-15T12:43:37;18.20;;;11.00;;
76597;SDS011;65486;53.144;18.134;2023-04-15T12:46:04;20.40;;;11.80;;
76597;SDS011;65486;53.144;18.134;2023-04-15T12:48:34;17.50;;;11.80;;
76597;SDS011;65486;53.144;18.134;2023-04-15T12:51:01;15.70;;;9.60;;
76597;SDS011;65486;53.144;18.134;2023-04-15T12:53:30;14.40;;;8.90;;
76597;SDS011;65486;53.144;18.134;2023-04-15T12:56:01;13.90;;;9.60;;
76597;SDS011;65486;53.144;18.134;2023-04-15T12:58:33;14.80;;;9.30;;
76597;SDS011;65486;53.144;18.134;2023-04-15T13:01:15;11.60;;;7.90;;
76597;SDS011;65486;53.144;18.134;2023-04-15T13:03:44;15.50;;;10.00;;
76597;SDS011;65486;53.144;18.134;2023-04-15T13:06:27;17.40;;;9.70;;
76597;SDS011;65486;53.144;18.134;2023-04-15T13:08:56;18.90;;;9.90;;
76597;SDS011;65486;53.144;18.134;2023-04-15T13:11:24;15.30;;;9.80;;
76597;SDS011;65486;53.144;18.134;2023-04-15T13:13:51;13.90;;;8.90;;
76597;SDS011;65486;53.144;18.134;2023-04-15T13:16:18;13.50;;;9.60;;
76597;SDS011;65486;53.144;18.134;2023-04-15T13:18:49;13.20;;;8.40;;
76597;SDS011;65486;53.144;18.134;2023-04-15T13:21:18;11.80;;;8.60;;
76597;SDS011;65486;53.144;18.134;2023-04-15T13:23:47;18.00;;;9.90;;
76597;SDS011;65486;53.144;18.134;2023-04-15T13:26:18;12.70;;;8.50;;
76597;SDS011;65486;53.144;18.134;2023-04-15T13:28:59;12.90;;;8.90;;
76597;SDS011;65486;53.144;18.134;2023-04-15T13:31:26;14.10;;;8.10;;
76597;SDS011;65486;53.144;18.134;2023-04-15T13:33:55;14.20;;;8.90;;
76597;SDS011;65486;53.144;18.134;2023-04-15T13:36:23;13.70;;;9.00;;
76597;SDS011;65486;53.144;18.134;2023-04-15T13:38:53;13.60;;;9.30;;
76597;SDS011;65486;53.144;18.134;2023-04-15T13:41:21;15.70;;;8.80;;
76597;SDS011;65486;53.144;18.134;2023-04-15T13:43:49;15.10;;;9.40;;
76597;SDS011;65486;53.144;18.134;2023-04-15T13:46:18;12.80;;;8.60;;
76597;SDS011;65486;53.144;18.134;2023-04-15T13:48:46;13.80;;;7.90;;
76597;SDS011;65486;53.144;18.134;2023-04-15T13:51:20;14.00;;;8.40;;
76597;SDS011;65486;53.144;18.134;2023-04-15T13:53:47;12.10;;;8.00;;
76597;SDS011;65486;53.144;18.134;2023-04-15T13:56:17;14.40;;;7.60;;
76597;SDS011;65486;53.144;18.134;2023-04-15T13:58:45;10.70;;;6.90;;
76597;SDS011;65486;53.144;18.134;2023-04-15T14:01:14;10.50;;;6.60;;
76597;SDS011;65486;53.144;18.134;2023-04-15T14:03:40;11.40;;;7.60;;
76597;SDS011;65486;53.144;18.134;2023-04-15T14:06:10;15.10;;;7.50;;
76597;SDS011;65486;53.144;18.134;2023-04-15T14:08:51;10.90;;;7.20;;
76597;SDS011;65486;53.144;18.134;2023-04-15T14:11:23;10.60;;;7.20;;
76597;SDS011;65486;53.144;18.134;2023-04-15T14:13:50;14.40;;;9.00;;
76597;SDS011;65486;53.144;18.134;2023-04-15T14:16:19;12.80;;;7.00;;
76597;SDS011;65486;53.144;18.134;2023-04-15T14:18:50;12.80;;;7.60;;
76597;SDS011;65486;53.144;18.134;2023-04-15T14:21:17;12.20;;;7.20;;
76597;SDS011;65486;53.144;18.134;2023-04-15T14:23:46;12.60;;;8.20;;
76597;SDS011;65486;53.144;18.134;2023-04-15T14:26:16;10.40;;;7.20;;
76597;SDS011;65486;53.144;18.134;2023-04-15T14:28:51;11.20;;;6.60;;
76597;SDS011;65486;53.144;18.134;2023-04-15T14:31:18;12.40;;;7.90;;
76597;SDS011;65486;53.144;18.134;2023-04-15T14:33:45;12.90;;;7.10;;
76597;SDS011;65486;53.144;18.134;2023-04-15T14:36:13;10.20;;;6.30;;
76597;SDS011;65486;53.144;18.134;2023-04-15T14:38:41;9.40;;;6.20;;
76597;SDS011;65486;53.144;18.134;2023-04-15T14:41:11;8.40;;;4.90;;
76597;SDS011;65486;53.144;18.134;2023-04-15T14:43:38;11.10;;;7.50;;
76597;SDS011;65486;53.144;18.134;2023-04-15T14:46:07;11.90;;;7.80;;
76597;SDS011;65486;53.144;18.134;2023-04-15T14:48:36;14.70;;;8.70;;
76597;SDS011;65486;53.144;18.134;2023-04-15T14:51:03;12.40;;;7.30;;
76597;SDS011;65486;53.144;18.134;2023-04-15T14:53:33;13.50;;;7.60;;
76597;SDS011;65486;53.144;18.134;2023-04-15T14:56:01;12.80;;;7.00;;
76597;SDS011;65486;53.144;18.134;2023-04-15T14:58:28;9.90;;;6.60;;
76597;SDS011;65486;53.144;18.134;2023-04-15T15:00:58;11.80;;;7.60;;